sensor_id;sensor_type;location;lat;lon;timestamp;P1;durP1;ratioP1;P2;durP2;ratioP2
10677;SDS011;5387;48.722;9.110;2023-07-24T00:02:23;11.10;;;5.43;;
10677;SDS011;5387;48.722;9.110;2023-07-24T00:04:50;6.40;;;4.63;;
10677;SDS011;5387;48.722;9.110;2023-07-24T00:07:17;8.45;;;4.78;;
10677;SDS011;5387;48.722;9.110;2023-07-24T00:09:45;9.52;;;5.80;;
10677;SDS011;5387;48.722;9.110;2023-07-24T00:12:12;6.93;;;4.85;;
10677;SDS011;5387;48.722;9.110;2023-07-24T00:14:39;6.75;;;4.47;;
10677;SDS011;5387;48.722;9.110;2023-07-24T00:17:06;7.45;;;4.82;;
10677;SDS011;5387;48.722;9.110;2023-07-24T00:19:33;10.20;;;4.97;;
10677;SDS011;5387;48.722;9.110;2023-07-24T00:22:00;9.60;;;5.38;;
10677;SDS011;5387;48.722;9.110;2023-07-24T00:24:26;8.30;;;5.28;;
10677;SDS011;5387;48.722;9.110;2023-07-24T00:26:55;8.57;;;5.30;;
10677;SDS011;5387;48.722;9.110;2023-07-24T00:29:21;13.15;;;5.28;;
10677;SDS011;5387;48.722;9.110;2023-07-24T00:31:48;8.10;;;5.15;;
10677;SDS011;5387;48.722;9.110;2023-07-24T00:34:15;12.45;;;5.18;;
10677;SDS011;5387;48.722;9.110;2023-07-24T00:36:42;7.47;;;5.13;;
10677;SDS011;5387;48.722;9.110;2023-07-24T00:39:09;9.80;;;5.70;;
10677;SDS011;5387;48.722;9.110;2023-07-24T00:41:35;8.60;;;5.57;;
10677;SDS011;5387;48.722;9.110;2023-07-24T00:44:04;8.98;;;5.20;;
10677;SDS011;5387;48.722;9.110;2023-07-24T00:46:30;9.98;;;5.28;;
10677;SDS011;5387;48.722;9.110;2023-07-24T00:48:58;7.45;;;5.50;;
10677;SDS011;5387;48.722;9.110;2023-07-24T00:51:26;7.95;;;4.95;;
10677;SDS011;5387;48.722;9.110;2023-07-24T00:53:54;8.50;;;5.13;;
10677;SDS011;5387;48.722;9.110;2023-07-24T00:56:21;11.90;;;5.38;;
10677;SDS011;5387;48.722;9.110;2023-07-24T00:58:48;8.07;;;5.20;;
10677;SDS011;5387;48.722;9.110;2023-07-24T01:01:17;9.90;;;5.30;;
10677;SDS011;5387;48.722;9.110;2023-07-24T01:03:44;8.85;;;5.15;;
10677;SDS011;5387;48.722;9.110;2023-07-24T01:06:11;10.80;;;5.63;;
10677;SDS011;5387;48.722;9.110;2023-07-24T01:08:37;9.63;;;5.60;;
10677;SDS011;5387;48.722;9.110;2023-07-24T01:11:06;9.07;;;5.35;;
10677;SDS011;5387;48.722;9.110;2023-07-24T01:13:42;8.85;;;5.53;;
10677;SDS011;5387;48.722;9.110;2023-07-24T01:16:14;7.97;;;4.95;;
10677;SDS011;5387;48.722;9.110;2023-07-24T01:18:47;9.80;;;5.25;;
10677;SDS011;5387;48.722;9.110;2023-07-24T01:21:17;7.90;;;4.72;;
10677;SDS011;5387;48.722;9.110;2023-07-24T01:23:53;7.78;;;5.07;;
10677;SDS011;5387;48.722;9.110;2023-07-24T01:26:26;10.40;;;5.07;;
10677;SDS011;5387;48.722;9.110;2023-07-24T01:28:53;8.55;;;5.30;;
10677;SDS011;5387;48.722;9.110;2023-07-24T01:31:20;8.15;;;5.20;;
10677;SDS011;5387;48.722;9.110;2023-07-24T01:33:46;12.55;;;5.65;;
10677;SDS011;5387;48.722;9.110;2023-07-24T01:36:13;9.05;;;5.00;;
10677;SDS011;5387;48.722;9.110;2023-07-24T01:38:41;9.93;;;5.75;;
10677;SDS011;5387;48.722;9.110;2023-07-24T01:41:08;7.65;;;4.95;;
10677;SDS011;5387;48.722;9.110;2023-07-24T01:43:37;9.35;;;4.88;;
10677;SDS011;5387;48.722;9.110;2023-07-24T01:46:04;8.65;;;5.35;;
10677;SDS011;5387;48.722;9.110;2023-07-24T01:48:30;7.90;;;5.05;;
10677;SDS011;5387;48.722;9.110;2023-07-24T01:50:57;8.38;;;5.28;;
10677;SDS011;5387;48.722;9.110;2023-07-24T01:53:24;7.93;;;4.72;;
10677;SDS011;5387;48.722;9.110;2023-07-24T01:55:51;8.40;;;5.40;;
10677;SDS011;5387;48.722;9.110;2023-07-24T01:58:18;9.73;;;5.65;;
10677;SDS011;5387;48.722;9.110;2023-07-24T02:00:46;9.52;;;5.00;;
10677;SDS011;5387;48.722;9.110;2023-07-24T02:03:13;10.00;;;5.70;;
10677;SDS011;5387;48.722;9.110;2023-07-24T02:05:40;8.27;;;5.03;;
10677;SDS011;5387;48.722;9.110;2023-07-24T02:08:06;10.43;;;5.68;;
10677;SDS011;5387;48.722;9.110;2023-07-24T02:10:36;8.38;;;4.93;;
10677;SDS011;5387;48.722;9.110;2023-07-24T02:13:03;12.52;;;5.55;;
10677;SDS011;5387;48.722;9.110;2023-07-24T02:15:32;7.45;;;4.78;;
10677;SDS011;5387;48.722;9.110;2023-07-24T02:18:00;8.85;;;5.30;;
10677;SDS011;5387;48.722;9.110;2023-07-24T02:20:27;10.00;;;5.25;;
10677;SDS011;5387;48.722;9.110;2023-07-24T02:22:54;9.63;;;5.72;;
10677;SDS011;5387;48.722;9.110;2023-07-24T02:25:21;8.73;;;5.07;;
10677;SDS011;5387;48.722;9.110;2023-07-24T02:27:48;7.97;;;5.18;;
10677;SDS011;5387;48.722;9.110;2023-07-24T02:30:14;7.15;;;5.05;;
10677;SDS011;5387;48.722;9.110;2023-07-24T02:32:41;9.05;;;5.70;;
10677;SDS011;5387;48.722;9.110;2023-07-24T02:35:09;9.33;;;5.50;;
10677;SDS011;5387;48.722;9.110;2023-07-24T02:37:36;8.25;;;4.95;;
10677;SDS011;5387;48.722;9.110;2023-07-24T02:40:03;9.43;;;5.78;;
10677;SDS011;5387;48.722;9.110;2023-07-24T02:42:31;9.02;;;5.38;;
10677;SDS011;5387;48.722;9.110;2023-07-24T02:44:57;8.15;;;5.07;;
10677;SDS011;5387;48.722;9.110;2023-07-24T02:47:24;7.72;;;5.38;;
10677;SDS011;5387;48.722;9.110;2023-07-24T02:49:51;7.03;;;4.75;;
10677;SDS011;5387;48.722;9.110;2023-07-24T02:52:19;8.90;;;4.97;;
10677;SDS011;5387;48.722;9.110;2023-07-24T02:54:46;7.18;;;5.18;;
10677;SDS011;5387;48.722;9.110;2023-07-24T02:57:12;8.98;;;5.55;;
10677;SDS011;5387;48.722;9.110;2023-07-24T02:59:39;8.20;;;4.88;;
10677;SDS011;5387;48.722;9.110;2023-07-24T03:02:06;9.50;;;5.50;;
10677;SDS011;5387;48.722;9.110;2023-07-24T03:04:32;7.88;;;5.07;;
10677;SDS011;5387;48.722;9.110;2023-07-24T03:06:59;8.75;;;5.32;;
10677;SDS011;5387;48.722;9.110;2023-07-24T03:09:27;7.93;;;4.53;;
10677;SDS011;5387;48.722;9.110;2023-07-24T03:11:54;9.15;;;5.28;;
10677;SDS011;5387;48.722;9.110;2023-07-24T03:14:21;7.60;;;4.90;;
10677;SDS011;5387;48.722;9.110;2023-07-24T03:16:48;8.50;;;5.57;;
10677;SDS011;5387;48.722;9.110;2023-07-24T03:19:14;7.05;;;4.68;;
10677;SDS011;5387;48.722;9.110;2023-07-24T03:21:42;10.02;;;5.20;;
10677;SDS011;5387;48.722;9.110;2023-07-24T03:24:09;10.80;;;5.38;;
10677;SDS011;5387;48.722;9.110;2023-07-24T03:26:37;10.10;;;5.28;;
10677;SDS011;5387;48.722;9.110;2023-07-24T03:29:04;8.05;;;4.93;;
10677;SDS011;5387;48.722;9.110;2023-07-24T03:31:31;9.18;;;5.68;;
10677;SDS011;5387;48.722;9.110;2023-07-24T03:33:58;9.02;;;5.30;;
10677;SDS011;5387;48.722;9.110;2023-07-24T03:36:25;12.30;;;6.00;;
10677;SDS011;5387;48.722;9.110;2023-07-24T03:38:52;9.23;;;5.20;;
10677;SDS011;5387;48.722;9.110;2023-07-24T03:41:18;7.82;;;5.53;;
10677;SDS011;5387;48.722;9.110;2023-07-24T03:43:47;9.82;;;5.13;;
10677;SDS011;5387;48.722;9.110;2023-07-24T03:46:13;10.45;;;5.35;;
10677;SDS011;5387;48.722;9.110;2023-07-24T03:48:40;9.98;;;5.28;;
10677;SDS011;5387;48.722;9.110;2023-07-24T03:51:07;8.82;;;5.72;;
10677;SDS011;5387;48.722;9.110;2023-07-24T03:53:34;9.23;;;5.35;;
10677;SDS011;5387;48.722;9.110;2023-07-24T03:56:01;8.18;;;5.40;;
10677;SDS011;5387;48.722;9.110;2023-07-24T03:58:28;8.77;;;5.68;;
10677;SDS011;5387;48.722;9.110;2023-07-24T04:00:56;8.68;;;5.40;;
10677;SDS011;5387;48.722;9.110;2023-07-24T04:03:23;8.43;;;4.50;;
10677;SDS011;5387;48.722;9.110;2023-07-24T04:05:50;9.27;;;5.47;;
10677;SDS011;5387;48.722;9.110;2023-07-24T04:08:16;6.82;;;4.90;;
10677;SDS011;5387;48.722;9.110;2023-07-24T04:10:43;8.23;;;5.00;;
10677;SDS011;5387;48.722;9.110;2023-07-24T04:13:10;8.73;;;5.40;;
10677;SDS011;5387;48.722;9.110;2023-07-24T04:15:37;8.95;;;5.80;;
10677;SDS011;5387;48.722;9.110;2023-07-24T04:18:05;7.50;;;4.95;;
10677;SDS011;5387;48.722;9.110;2023-07-24T04:20:32;9.40;;;5.43;;
10677;SDS011;5387;48.722;9.110;2023-07-24T04:22:59;5.88;;;4.72;;
10677;SDS011;5387;48.722;9.110;2023-07-24T04:25:26;9.20;;;6.25;;
10677;SDS011;5387;48.722;9.110;2023-07-24T04:27:53;13.00;;;6.05;;
10677;SDS011;5387;48.722;9.110;2023-07-24T04:30:20;8.82;;;5.40;;
10677;SDS011;5387;48.722;9.110;2023-07-24T04:32:46;8.32;;;5.57;;
10677;SDS011;5387;48.722;9.110;2023-07-24T04:35:16;11.48;;;5.85;;
10677;SDS011;5387;48.722;9.110;2023-07-24T04:37:42;8.30;;;5.60;;
10677;SDS011;5387;48.722;9.110;2023-07-24T04:40:10;8.05;;;5.55;;
10677;SDS011;5387;48.722;9.110;2023-07-24T04:42:37;12.80;;;5.25;;
10677;SDS011;5387;48.722;9.110;2023-07-24T04:45:04;8.75;;;5.15;;
10677;SDS011;5387;48.722;9.110;2023-07-24T04:47:32;7.80;;;4.57;;
10677;SDS011;5387;48.722;9.110;2023-07-24T04:49:58;7.72;;;5.10;;
10677;SDS011;5387;48.722;9.110;2023-07-24T04:52:26;7.88;;;5.40;;
10677;SDS011;5387;48.722;9.110;2023-07-24T04:54:53;6.25;;;4.93;;
10677;SDS011;5387;48.722;9.110;2023-07-24T04:57:20;11.70;;;6.22;;
10677;SDS011;5387;48.722;9.110;2023-07-24T04:59:47;8.63;;;5.07;;
10677;SDS011;5387;48.722;9.110;2023-07-24T05:02:13;8.18;;;5.35;;
10677;SDS011;5387;48.722;9.110;2023-07-24T05:04:40;10.35;;;5.70;;
10677;SDS011;5387;48.722;9.110;2023-07-24T05:07:07;7.53;;;4.80;;
10677;SDS011;5387;48.722;9.110;2023-07-24T05:09:35;7.82;;;5.00;;
10677;SDS011;5387;48.722;9.110;2023-07-24T05:12:02;6.70;;;4.47;;
10677;SDS011;5387;48.722;9.110;2023-07-24T05:14:29;7.93;;;4.90;;
10677;SDS011;5387;48.722;9.110;2023-07-24T05:16:56;10.27;;;5.82;;
10677;SDS011;5387;48.722;9.110;2023-07-24T05:19:23;9.05;;;5.60;;
10677;SDS011;5387;48.722;9.110;2023-07-24T05:21:50;11.32;;;5.72;;
10677;SDS011;5387;48.722;9.110;2023-07-24T05:24:16;7.85;;;5.63;;
10677;SDS011;5387;48.722;9.110;2023-07-24T05:26:45;10.80;;;5.35;;
10677;SDS011;5387;48.722;9.110;2023-07-24T05:29:11;8.10;;;5.25;;
10677;SDS011;5387;48.722;9.110;2023-07-24T05:31:38;8.50;;;5.03;;
10677;SDS011;5387;48.722;9.110;2023-07-24T05:34:05;9.73;;;5.40;;
10677;SDS011;5387;48.722;9.110;2023-07-24T05:36:32;7.40;;;5.28;;
10677;SDS011;5387;48.722;9.110;2023-07-24T05:38:58;7.95;;;4.90;;
10677;SDS011;5387;48.722;9.110;2023-07-24T05:41:25;8.15;;;5.22;;
10677;SDS011;5387;48.722;9.110;2023-07-24T05:43:53;8.90;;;6.03;;
10677;SDS011;5387;48.722;9.110;2023-07-24T05:46:20;9.32;;;5.20;;
10677;SDS011;5387;48.722;9.110;2023-07-24T05:48:47;7.85;;;5.53;;
10677;SDS011;5387;48.722;9.110;2023-07-24T05:51:14;7.63;;;5.13;;
10677;SDS011;5387;48.722;9.110;2023-07-24T05:53:41;9.30;;;5.80;;
10677;SDS011;5387;48.722;9.110;2023-07-24T05:56:07;10.15;;;5.55;;
10677;SDS011;5387;48.722;9.110;2023-07-24T05:58:34;9.80;;;5.57;;
10677;SDS011;5387;48.722;9.110;2023-07-24T06:01:02;9.27;;;5.53;;
10677;SDS011;5387;48.722;9.110;2023-07-24T06:03:29;9.40;;;5.97;;
10677;SDS011;5387;48.722;9.110;2023-07-24T06:05:56;8.73;;;5.15;;
10677;SDS011;5387;48.722;9.110;2023-07-24T06:08:23;9.25;;;5.53;;
10677;SDS011;5387;48.722;9.110;2023-07-24T06:10:50;12.45;;;5.75;;
10677;SDS011;5387;48.722;9.110;2023-07-24T06:13:17;9.65;;;5.63;;
10677;SDS011;5387;48.722;9.110;2023-07-24T06:15:46;9.48;;;5.25;;
10677;SDS011;5387;48.722;9.110;2023-07-24T06:18:14;10.15;;;5.10;;
10677;SDS011;5387;48.722;9.110;2023-07-24T06:20:41;9.20;;;5.55;;
10677;SDS011;5387;48.722;9.110;2023-07-24T06:23:08;9.45;;;5.57;;
10677;SDS011;5387;48.722;9.110;2023-07-24T06:25:34;10.13;;;5.40;;
10677;SDS011;5387;48.722;9.110;2023-07-24T06:28:01;10.35;;;6.45;;
10677;SDS011;5387;48.722;9.110;2023-07-24T06:30:28;11.48;;;6.43;;
10677;SDS011;5387;48.722;9.110;2023-07-24T06:32:55;9.73;;;5.50;;
10677;SDS011;5387;48.722;9.110;2023-07-24T06:35:23;9.00;;;5.25;;
10677;SDS011;5387;48.722;9.110;2023-07-24T06:37:50;11.52;;;5.35;;
10677;SDS011;5387;48.722;9.110;2023-07-24T06:40:17;9.85;;;5.72;;
10677;SDS011;5387;48.722;9.110;2023-07-24T06:42:43;9.98;;;5.65;;
10677;SDS011;5387;48.722;9.110;2023-07-24T06:45:11;11.30;;;6.28;;
10677;SDS011;5387;48.722;9.110;2023-07-24T06:47:38;8.63;;;5.65;;
10677;SDS011;5387;48.722;9.110;2023-07-24T06:50:05;11.68;;;6.43;;
10677;SDS011;5387;48.722;9.110;2023-07-24T06:52:34;14.57;;;6.78;;
10677;SDS011;5387;48.722;9.110;2023-07-24T06:55:01;9.63;;;5.28;;
10677;SDS011;5387;48.722;9.110;2023-07-24T06:57:28;10.80;;;6.57;;
10677;SDS011;5387;48.722;9.110;2023-07-24T06:59:55;9.25;;;5.80;;
10677;SDS011;5387;48.722;9.110;2023-07-24T07:02:21;9.27;;;5.80;;
10677;SDS011;5387;48.722;9.110;2023-07-24T07:04:48;9.65;;;5.78;;
10677;SDS011;5387;48.722;9.110;2023-07-24T07:07:15;8.40;;;5.75;;
10677;SDS011;5387;48.722;9.110;2023-07-24T07:09:43;10.98;;;5.68;;
10677;SDS011;5387;48.722;9.110;2023-07-24T07:12:10;6.43;;;4.80;;
10677;SDS011;5387;48.722;9.110;2023-07-24T07:14:36;7.63;;;5.25;;
10677;SDS011;5387;48.722;9.110;2023-07-24T07:17:03;10.27;;;5.88;;
10677;SDS011;5387;48.722;9.110;2023-07-24T07:19:30;9.77;;;5.93;;
10677;SDS011;5387;48.722;9.110;2023-07-24T07:21:57;7.72;;;5.30;;
10677;SDS011;5387;48.722;9.110;2023-07-24T07:24:24;10.93;;;5.82;;
10677;SDS011;5387;48.722;9.110;2023-07-24T07:26:52;8.98;;;5.97;;
10677;SDS011;5387;48.722;9.110;2023-07-24T07:29:18;9.30;;;5.60;;
10677;SDS011;5387;48.722;9.110;2023-07-24T07:31:45;9.27;;;5.63;;
10677;SDS011;5387;48.722;9.110;2023-07-24T07:34:12;10.32;;;5.78;;
10677;SDS011;5387;48.722;9.110;2023-07-24T07:36:39;10.25;;;6.30;;
10677;SDS011;5387;48.722;9.110;2023-07-24T07:39:05;9.57;;;5.65;;
10677;SDS011;5387;48.722;9.110;2023-07-24T07:41:32;7.45;;;4.80;;
10677;SDS011;5387;48.722;9.110;2023-07-24T07:44:00;14.52;;;6.20;;
10677;SDS011;5387;48.722;9.110;2023-07-24T07:46:27;13.35;;;5.95;;
10677;SDS011;5387;48.722;9.110;2023-07-24T07:48:54;10.30;;;5.85;;
10677;SDS011;5387;48.722;9.110;2023-07-24T07:51:21;12.73;;;5.60;;
10677;SDS011;5387;48.722;9.110;2023-07-24T07:53:50;11.57;;;5.68;;
10677;SDS011;5387;48.722;9.110;2023-07-24T07:56:17;9.98;;;6.45;;
10677;SDS011;5387;48.722;9.110;2023-07-24T07:58:44;12.70;;;5.82;;
10677;SDS011;5387;48.722;9.110;2023-07-24T08:01:12;9.10;;;5.53;;
10677;SDS011;5387;48.722;9.110;2023-07-24T08:03:39;9.77;;;6.32;;
10677;SDS011;5387;48.722;9.110;2023-07-24T08:06:06;10.13;;;5.82;;
10677;SDS011;5387;48.722;9.110;2023-07-24T08:08:33;10.55;;;5.65;;
10677;SDS011;5387;48.722;9.110;2023-07-24T08:11:03;11.60;;;5.60;;
10677;SDS011;5387;48.722;9.110;2023-07-24T08:13:30;9.32;;;5.93;;
10677;SDS011;5387;48.722;9.110;2023-07-24T08:15:57;10.55;;;6.43;;
10677;SDS011;5387;48.722;9.110;2023-07-24T08:18:25;11.38;;;5.82;;
10677;SDS011;5387;48.722;9.110;2023-07-24T08:20:52;8.30;;;4.93;;
10677;SDS011;5387;48.722;9.110;2023-07-24T08:23:19;11.70;;;5.97;;
10677;SDS011;5387;48.722;9.110;2023-07-24T08:25:52;8.90;;;4.90;;
10677;SDS011;5387;48.722;9.110;2023-07-24T08:28:19;10.75;;;6.28;;
10677;SDS011;5387;48.722;9.110;2023-07-24T08:30:46;10.02;;;5.70;;
10677;SDS011;5387;48.722;9.110;2023-07-24T08:33:21;10.13;;;5.70;;
10677;SDS011;5387;48.722;9.110;2023-07-24T08:35:58;8.38;;;5.55;;
10677;SDS011;5387;48.722;9.110;2023-07-24T08:38:25;7.47;;;5.57;;
10677;SDS011;5387;48.722;9.110;2023-07-24T08:40:59;9.68;;;5.95;;
10677;SDS011;5387;48.722;9.110;2023-07-24T08:43:27;8.25;;;5.43;;
10677;SDS011;5387;48.722;9.110;2023-07-24T08:45:55;10.80;;;5.70;;
10677;SDS011;5387;48.722;9.110;2023-07-24T08:48:24;12.65;;;6.43;;
10677;SDS011;5387;48.722;9.110;2023-07-24T08:50:52;9.25;;;5.55;;
10677;SDS011;5387;48.722;9.110;2023-07-24T08:53:20;7.05;;;5.45;;
10677;SDS011;5387;48.722;9.110;2023-07-24T08:55:47;8.70;;;5.70;;
10677;SDS011;5387;48.722;9.110;2023-07-24T08:58:14;8.73;;;5.93;;
10677;SDS011;5387;48.722;9.110;2023-07-24T09:00:41;8.05;;;5.47;;
10677;SDS011;5387;48.722;9.110;2023-07-24T09:03:08;10.63;;;5.82;;
10677;SDS011;5387;48.722;9.110;2023-07-24T09:05:35;9.07;;;6.22;;
10677;SDS011;5387;48.722;9.110;2023-07-24T09:08:02;10.43;;;5.80;;
10677;SDS011;5387;48.722;9.110;2023-07-24T09:10:30;8.88;;;6.10;;
10677;SDS011;5387;48.722;9.110;2023-07-24T09:12:57;9.43;;;5.57;;
10677;SDS011;5387;48.722;9.110;2023-07-24T09:15:24;8.43;;;5.47;;
10677;SDS011;5387;48.722;9.110;2023-07-24T09:17:51;10.95;;;5.13;;
10677;SDS011;5387;48.722;9.110;2023-07-24T09:20:18;7.95;;;5.40;;
10677;SDS011;5387;48.722;9.110;2023-07-24T09:22:49;8.07;;;5.28;;
10677;SDS011;5387;48.722;9.110;2023-07-24T09:25:16;6.97;;;4.20;;
10677;SDS011;5387;48.722;9.110;2023-07-24T09:27:44;8.52;;;4.57;;
10677;SDS011;5387;48.722;9.110;2023-07-24T09:30:14;6.97;;;4.38;;
10677;SDS011;5387;48.722;9.110;2023-07-24T09:32:42;5.78;;;4.05;;
10677;SDS011;5387;48.722;9.110;2023-07-24T09:35:15;6.07;;;3.85;;
10677;SDS011;5387;48.722;9.110;2023-07-24T09:37:44;7.32;;;4.63;;
10677;SDS011;5387;48.722;9.110;2023-07-24T09:40:11;6.03;;;4.05;;
10677;SDS011;5387;48.722;9.110;2023-07-24T09:42:40;10.15;;;4.53;;
10677;SDS011;5387;48.722;9.110;2023-07-24T09:45:09;6.15;;;4.25;;
10677;SDS011;5387;48.722;9.110;2023-07-24T09:47:36;7.53;;;4.35;;
10677;SDS011;5387;48.722;9.110;2023-07-24T09:50:05;7.10;;;3.65;;
10677;SDS011;5387;48.722;9.110;2023-07-24T09:52:33;8.30;;;3.83;;
10677;SDS011;5387;48.722;9.110;2023-07-24T09:55:09;5.88;;;4.32;;
10677;SDS011;5387;48.722;9.110;2023-07-24T09:57:37;7.35;;;3.75;;
10677;SDS011;5387;48.722;9.110;2023-07-24T10:00:05;6.47;;;3.95;;
10677;SDS011;5387;48.722;9.110;2023-07-24T10:02:34;7.05;;;4.03;;
10677;SDS011;5387;48.722;9.110;2023-07-24T10:05:02;5.53;;;4.22;;
10677;SDS011;5387;48.722;9.110;2023-07-24T10:07:29;6.82;;;4.30;;
10677;SDS011;5387;48.722;9.110;2023-07-24T10:09:58;7.00;;;4.40;;
10677;SDS011;5387;48.722;9.110;2023-07-24T10:12:25;5.20;;;3.83;;
10677;SDS011;5387;48.722;9.110;2023-07-24T10:14:55;6.72;;;4.53;;
10677;SDS011;5387;48.722;9.110;2023-07-24T10:17:35;7.38;;;4.55;;
10677;SDS011;5387;48.722;9.110;2023-07-24T10:20:03;5.80;;;4.03;;
10677;SDS011;5387;48.722;9.110;2023-07-24T10:22:30;5.97;;;4.20;;
10677;SDS011;5387;48.722;9.110;2023-07-24T10:24:57;8.93;;;4.88;;
10677;SDS011;5387;48.722;9.110;2023-07-24T10:27:24;5.90;;;3.90;;
10677;SDS011;5387;48.722;9.110;2023-07-24T10:29:57;6.90;;;4.38;;
10677;SDS011;5387;48.722;9.110;2023-07-24T10:32:25;7.45;;;4.90;;
10677;SDS011;5387;48.722;9.110;2023-07-24T10:35:00;10.80;;;5.55;;
10677;SDS011;5387;48.722;9.110;2023-07-24T10:37:34;8.95;;;5.28;;
10677;SDS011;5387;48.722;9.110;2023-07-24T10:40:01;15.32;;;5.20;;
10677;SDS011;5387;48.722;9.110;2023-07-24T10:42:29;6.93;;;4.93;;
10677;SDS011;5387;48.722;9.110;2023-07-24T10:45:03;8.60;;;5.22;;
10677;SDS011;5387;48.722;9.110;2023-07-24T10:47:31;9.20;;;5.13;;
10677;SDS011;5387;48.722;9.110;2023-07-24T10:49:57;11.25;;;5.40;;
10677;SDS011;5387;48.722;9.110;2023-07-24T10:52:28;7.45;;;5.15;;
10677;SDS011;5387;48.722;9.110;2023-07-24T10:54:56;10.50;;;5.10;;
10677;SDS011;5387;48.722;9.110;2023-07-24T10:57:26;9.45;;;5.40;;
10677;SDS011;5387;48.722;9.110;2023-07-24T10:59:52;7.40;;;5.13;;
10677;SDS011;5387;48.722;9.110;2023-07-24T11:02:19;15.05;;;6.30;;
10677;SDS011;5387;48.722;9.110;2023-07-24T11:04:46;7.63;;;4.78;;
10677;SDS011;5387;48.722;9.110;2023-07-24T11:07:14;10.48;;;5.00;;
10677;SDS011;5387;48.722;9.110;2023-07-24T11:09:41;8.80;;;5.40;;
10677;SDS011;5387;48.722;9.110;2023-07-24T11:12:09;9.73;;;5.15;;
10677;SDS011;5387;48.722;9.110;2023-07-24T11:14:45;10.80;;;5.35;;
10677;SDS011;5387;48.722;9.110;2023-07-24T11:17:13;12.75;;;5.32;;
10677;SDS011;5387;48.722;9.110;2023-07-24T11:19:40;11.23;;;5.80;;
10677;SDS011;5387;48.722;9.110;2023-07-24T11:22:07;9.00;;;5.63;;
10677;SDS011;5387;48.722;9.110;2023-07-24T11:24:42;7.32;;;5.15;;
10677;SDS011;5387;48.722;9.110;2023-07-24T11:27:10;7.18;;;5.82;;
10677;SDS011;5387;48.722;9.110;2023-07-24T11:29:40;10.07;;;6.38;;
10677;SDS011;5387;48.722;9.110;2023-07-24T11:32:06;10.65;;;5.85;;
10677;SDS011;5387;48.722;9.110;2023-07-24T11:34:33;8.60;;;5.88;;
10677;SDS011;5387;48.722;9.110;2023-07-24T11:37:01;8.43;;;6.15;;
10677;SDS011;5387;48.722;9.110;2023-07-24T11:39:28;7.60;;;5.82;;
10677;SDS011;5387;48.722;9.110;2023-07-24T11:41:56;9.65;;;6.00;;
10677;SDS011;5387;48.722;9.110;2023-07-24T11:44:25;15.50;;;6.65;;
10677;SDS011;5387;48.722;9.110;2023-07-24T11:46:59;8.80;;;5.68;;
10677;SDS011;5387;48.722;9.110;2023-07-24T11:49:27;6.32;;;5.38;;
10677;SDS011;5387;48.722;9.110;2023-07-24T11:51:59;7.45;;;5.40;;
10677;SDS011;5387;48.722;9.110;2023-07-24T11:54:26;9.25;;;4.90;;
10677;SDS011;5387;48.722;9.110;2023-07-24T11:56:53;7.93;;;5.07;;
10677;SDS011;5387;48.722;9.110;2023-07-24T11:59:21;9.07;;;4.90;;
10677;SDS011;5387;48.722;9.110;2023-07-24T12:01:48;8.20;;;5.25;;
10677;SDS011;5387;48.722;9.110;2023-07-24T12:04:15;8.70;;;4.85;;
10677;SDS011;5387;48.722;9.110;2023-07-24T12:06:42;8.23;;;5.40;;
10677;SDS011;5387;48.722;9.110;2023-07-24T12:09:10;7.47;;;5.40;;
10677;SDS011;5387;48.722;9.110;2023-07-24T12:11:40;7.50;;;4.40;;
10677;SDS011;5387;48.722;9.110;2023-07-24T12:14:08;7.18;;;4.75;;
10677;SDS011;5387;48.722;9.110;2023-07-24T12:16:36;8.05;;;4.60;;
10677;SDS011;5387;48.722;9.110;2023-07-24T12:19:04;9.30;;;4.50;;
10677;SDS011;5387;48.722;9.110;2023-07-24T12:21:31;7.15;;;4.65;;
10677;SDS011;5387;48.722;9.110;2023-07-24T12:23:58;6.75;;;4.70;;
10677;SDS011;5387;48.722;9.110;2023-07-24T12:26:24;7.35;;;5.20;;
10677;SDS011;5387;48.722;9.110;2023-07-24T12:28:52;10.27;;;5.68;;
10677;SDS011;5387;48.722;9.110;2023-07-24T12:31:19;7.70;;;4.55;;
10677;SDS011;5387;48.722;9.110;2023-07-24T12:33:47;7.13;;;4.60;;
10677;SDS011;5387;48.722;9.110;2023-07-24T12:36:14;6.68;;;4.35;;
10677;SDS011;5387;48.722;9.110;2023-07-24T12:38:41;6.78;;;4.72;;
10677;SDS011;5387;48.722;9.110;2023-07-24T12:41:08;9.95;;;4.72;;
10677;SDS011;5387;48.722;9.110;2023-07-24T12:43:35;5.30;;;4.45;;
10677;SDS011;5387;48.722;9.110;2023-07-24T12:46:02;8.25;;;5.20;;
10677;SDS011;5387;48.722;9.110;2023-07-24T12:48:28;6.47;;;4.05;;
10677;SDS011;5387;48.722;9.110;2023-07-24T12:50:58;5.13;;;4.15;;
10677;SDS011;5387;48.722;9.110;2023-07-24T12:53:26;6.85;;;4.78;;
10677;SDS011;5387;48.722;9.110;2023-07-24T12:55:52;6.60;;;4.55;;
10677;SDS011;5387;48.722;9.110;2023-07-24T12:58:19;8.10;;;4.22;;
10677;SDS011;5387;48.722;9.110;2023-07-24T13:00:46;7.05;;;4.70;;
10677;SDS011;5387;48.722;9.110;2023-07-24T13:03:13;6.18;;;4.30;;
10677;SDS011;5387;48.722;9.110;2023-07-24T13:05:40;6.18;;;4.13;;
10677;SDS011;5387;48.722;9.110;2023-07-24T13:08:08;6.45;;;4.43;;
10677;SDS011;5387;48.722;9.110;2023-07-24T13:10:34;6.95;;;4.45;;
10677;SDS011;5387;48.722;9.110;2023-07-24T13:13:01;6.00;;;3.70;;
10677;SDS011;5387;48.722;9.110;2023-07-24T13:15:28;6.93;;;4.10;;
10677;SDS011;5387;48.722;9.110;2023-07-24T13:17:57;7.53;;;4.32;;
10677;SDS011;5387;48.722;9.110;2023-07-24T13:20:24;6.00;;;4.07;;
10677;SDS011;5387;48.722;9.110;2023-07-24T13:22:51;6.50;;;4.50;;
10677;SDS011;5387;48.722;9.110;2023-07-24T13:25:19;4.18;;;3.50;;
10677;SDS011;5387;48.722;9.110;2023-07-24T13:27:46;6.50;;;4.18;;
10677;SDS011;5387;48.722;9.110;2023-07-24T13:30:12;3.78;;;3.35;;
10677;SDS011;5387;48.722;9.110;2023-07-24T13:32:39;5.15;;;3.50;;
10677;SDS011;5387;48.722;9.110;2023-07-24T13:35:06;5.47;;;3.55;;
10677;SDS011;5387;48.722;9.110;2023-07-24T13:37:34;5.05;;;3.95;;
10677;SDS011;5387;48.722;9.110;2023-07-24T13:40:00;4.03;;;3.38;;
10677;SDS011;5387;48.722;9.110;2023-07-24T13:42:28;5.43;;;4.07;;
10677;SDS011;5387;48.722;9.110;2023-07-24T13:44:55;5.22;;;3.78;;
10677;SDS011;5387;48.722;9.110;2023-07-24T13:47:22;5.93;;;3.85;;
10677;SDS011;5387;48.722;9.110;2023-07-24T13:49:49;4.47;;;3.65;;
10677;SDS011;5387;48.722;9.110;2023-07-24T13:52:15;4.25;;;3.67;;
10677;SDS011;5387;48.722;9.110;2023-07-24T13:54:42;5.85;;;3.72;;
10677;SDS011;5387;48.722;9.110;2023-07-24T13:57:09;6.15;;;4.03;;
10677;SDS011;5387;48.722;9.110;2023-07-24T13:59:37;4.47;;;3.53;;
10677;SDS011;5387;48.722;9.110;2023-07-24T14:02:04;5.45;;;4.32;;
10677;SDS011;5387;48.722;9.110;2023-07-24T14:04:32;5.47;;;3.42;;
10677;SDS011;5387;48.722;9.110;2023-07-24T14:06:58;6.38;;;3.83;;
10677;SDS011;5387;48.722;9.110;2023-07-24T14:09:25;4.00;;;3.25;;
10677;SDS011;5387;48.722;9.110;2023-07-24T14:11:52;4.55;;;2.95;;
10677;SDS011;5387;48.722;9.110;2023-07-24T14:14:19;5.07;;;3.30;;
10677;SDS011;5387;48.722;9.110;2023-07-24T14:16:47;4.35;;;3.55;;
10677;SDS011;5387;48.722;9.110;2023-07-24T14:19:14;6.30;;;3.40;;
10677;SDS011;5387;48.722;9.110;2023-07-24T14:21:41;3.85;;;3.28;;
10677;SDS011;5387;48.722;9.110;2023-07-24T14:24:08;5.05;;;3.13;;
10677;SDS011;5387;48.722;9.110;2023-07-24T14:26:34;4.93;;;2.85;;
10677;SDS011;5387;48.722;9.110;2023-07-24T14:29:02;4.15;;;3.30;;
10677;SDS011;5387;48.722;9.110;2023-07-24T14:31:29;4.20;;;3.05;;
10677;SDS011;5387;48.722;9.110;2023-07-24T14:33:57;5.38;;;3.28;;
10677;SDS011;5387;48.722;9.110;2023-07-24T14:36:24;3.25;;;2.95;;
10677;SDS011;5387;48.722;9.110;2023-07-24T14:38:52;5.50;;;3.25;;
10677;SDS011;5387;48.722;9.110;2023-07-24T14:41:19;5.00;;;3.20;;
10677;SDS011;5387;48.722;9.110;2023-07-24T14:43:46;5.30;;;3.50;;
10677;SDS011;5387;48.722;9.110;2023-07-24T14:46:13;5.30;;;3.08;;
10677;SDS011;5387;48.722;9.110;2023-07-24T14:48:39;4.20;;;3.10;;
10677;SDS011;5387;48.722;9.110;2023-07-24T14:51:08;3.85;;;3.25;;
10677;SDS011;5387;48.722;9.110;2023-07-24T14:53:34;4.25;;;3.78;;
10677;SDS011;5387;48.722;9.110;2023-07-24T14:56:01;4.38;;;3.55;;
10677;SDS011;5387;48.722;9.110;2023-07-24T14:58:28;7.03;;;3.35;;
10677;SDS011;5387;48.722;9.110;2023-07-24T15:00:55;5.90;;;3.45;;